Oregon City, Oregon
Current Conditions -  °F | °C
As of 1:53 AM on Saturday 29 Nov 2014 (Local Time) from KUAO Reporting Station
Broken Clouds Broken Clouds  
Wind Chill: 39°   Ceiling: 7000
Heat Index: 43°   Visibility: 10mi
Dew Point: 39°   Wind: 7mph
Humidity: 86%   Direction: 230°SW
Pressure: 29.66"   Gusts: NA
Location:  45.34°N, 122.59°W
Report Text: KUAO 290953Z AUTO 23006KT 10SM BKN070 06/04 A2966 RMK AO2 RAB14E29 SLP043 P0000 T00610039
Loading
Personal Weather Stations






























Interactive Weather Map New forecast layout! Learn more

10-Day Weather Forecast

Advertisements
Track Severe Weather on mobile